createdAt,value
2023-01-18T00:04:51.038Z,0.50
2023-01-18T00:09:53.667Z,0.30
2023-01-18T00:14:56.265Z,0.40
2023-01-18T00:19:58.861Z,0.40
2023-01-18T00:25:01.466Z,0.20
2023-01-18T00:30:07.982Z,-0.10
2023-01-18T00:35:11.046Z,-0.10
2023-01-18T00:40:13.736Z,0.20
2023-01-18T00:45:16.451Z,0.30
2023-01-18T00:50:22.607Z,1.40
2023-01-18T00:55:26.466Z,1.40
2023-01-18T01:00:29.039Z,0.60
2023-01-18T01:05:50.268Z,0.50
2023-01-18T01:10:53.856Z,0.40
2023-01-18T01:16:14.953Z,0.50
2023-01-18T01:21:36.461Z,0.20
2023-01-18T01:26:39.031Z,0.30
2023-01-18T01:31:41.606Z,0.30
2023-01-18T01:36:44.110Z,0.10
2023-01-18T01:41:46.582Z,0.40
2023-01-18T01:46:58.977Z,0.60
2023-01-18T01:52:11.152Z,1.10
2023-01-18T01:57:34.093Z,1.70
2023-01-18T02:02:37.542Z,1.80
2023-01-18T02:07:41.147Z,1.60
2023-01-18T02:12:47.063Z,1.40
2023-01-18T02:18:01.598Z,1.10
2023-01-18T02:23:07.355Z,0.90
2023-01-18T02:28:35.748Z,1.10
2023-01-18T02:33:47.101Z,1.30
2023-01-18T02:38:54.849Z,1.10
2023-01-18T02:44:16.889Z,1.20
2023-01-18T02:49:23.593Z,1.30
2023-01-18T02:54:26.113Z,1.30
2023-01-18T02:59:41.988Z,1.20
2023-01-18T03:04:54.423Z,1.20
2023-01-18T03:09:59.922Z,1.00
2023-01-18T03:15:29.296Z,1.10
2023-01-18T03:20:35.854Z,2.80
2023-01-18T03:25:50.682Z,3.40
2023-01-18T03:31:15.695Z,3.70
2023-01-18T03:36:31.512Z,4.10
2023-01-18T03:41:39.698Z,2.90
2023-01-18T03:46:43.885Z,2.50
2023-01-18T03:52:15.497Z,2.80
2023-01-18T03:57:40.887Z,2.10
2023-01-18T04:02:44.970Z,1.40
2023-01-18T04:07:47.579Z,1.30
2023-01-18T04:12:50.177Z,1.30
2023-01-18T04:17:55.657Z,1.30
2023-01-18T04:22:58.594Z,1.10
2023-01-18T04:28:01.274Z,1.10
2023-01-18T04:33:03.874Z,1.00
2023-01-18T04:38:06.453Z,1.10
2023-01-18T04:43:09.014Z,2.50
2023-01-18T04:48:11.550Z,3.60
2023-01-18T04:53:14.458Z,3.00
2023-01-18T04:58:17.112Z,2.00
2023-01-18T05:03:19.579Z,1.80
2023-01-18T05:08:22.240Z,1.80
2023-01-18T05:13:24.732Z,1.90
2023-01-18T05:18:27.528Z,1.80
2023-01-18T05:23:30.296Z,1.80
2023-01-18T05:28:32.834Z,1.90
2023-01-18T05:33:35.381Z,3.60
2023-01-18T05:38:37.877Z,4.20
2023-01-18T05:43:40.651Z,4.70
2023-01-18T05:48:43.211Z,5.10
2023-01-18T05:53:45.720Z,5.50
2023-01-18T05:58:48.394Z,5.60
2023-01-18T06:03:50.920Z,5.70
2023-01-18T06:08:53.376Z,5.20
2023-01-18T06:13:55.911Z,4.70
2023-01-18T06:18:58.496Z,3.50
2023-01-18T06:24:01.029Z,2.80
2023-01-18T06:29:03.663Z,2.30
2023-01-18T06:34:09.557Z,2.00
2023-01-18T06:39:12.196Z,2.20
2023-01-18T06:44:14.813Z,2.50
2023-01-18T06:49:17.320Z,3.60
2023-01-18T06:54:19.874Z,3.80
2023-01-18T07:04:25.763Z,3.30
2023-01-18T07:09:28.452Z,5.80
2023-01-18T07:14:30.913Z,4.80
2023-01-18T07:19:33.408Z,4.30
2023-01-18T07:24:36.029Z,3.90
2023-01-18T07:29:38.603Z,3.90
2023-01-18T07:34:41.057Z,3.40
2023-01-18T07:39:43.642Z,3.20
2023-01-18T07:44:46.294Z,2.90
2023-01-18T07:49:48.874Z,2.80
2023-01-18T07:54:52.139Z,2.80
2023-01-18T07:59:54.860Z,2.80
2023-01-18T08:04:57.455Z,2.80
2023-01-18T08:09:59.975Z,2.80
2023-01-18T08:15:02.504Z,2.90
2023-01-18T08:20:06.206Z,2.90
2023-01-18T08:25:09.848Z,2.90
2023-01-18T08:30:12.592Z,2.90
2023-01-18T08:47:28.198Z,4.00
2023-01-18T08:52:38.296Z,3.20
2023-01-18T08:57:41.328Z,3.60
2023-01-18T09:02:44.325Z,3.60
2023-01-18T09:07:48.221Z,4.10
2023-01-18T09:12:52.928Z,4.00
2023-01-18T09:17:59.617Z,4.10
2023-01-18T09:23:10.473Z,4.50
2023-01-18T09:28:13.407Z,4.60
2023-01-18T09:33:52.367Z,4.60
2023-01-18T09:39:06.333Z,4.50
2023-01-18T09:44:28.303Z,4.30
2023-01-18T09:49:55.855Z,4.80
2023-01-18T09:55:18.934Z,5.10
2023-01-18T10:00:47.046Z,5.20
2023-01-18T10:06:26.025Z,5.50
2023-01-18T10:11:55.855Z,5.40
2023-01-18T10:17:07.467Z,4.90
2023-01-18T10:22:39.049Z,4.60
2023-01-18T10:28:09.856Z,4.70
2023-01-18T10:33:32.463Z,4.60
2023-01-18T10:38:35.535Z,4.70
2023-01-18T10:43:41.245Z,4.50
2023-01-18T10:48:53.419Z,4.60
2023-01-18T10:53:59.955Z,4.70
2023-01-18T10:59:26.611Z,4.60
2023-01-18T11:04:31.261Z,4.40
2023-01-18T11:09:55.542Z,4.40
2023-01-18T11:15:06.670Z,4.30
2023-01-18T11:20:20.071Z,4.50
2023-01-18T11:25:22.917Z,4.90
2023-01-18T11:30:27.246Z,5.50
2023-01-18T11:35:36.431Z,5.80
2023-01-18T11:40:38.951Z,5.60
2023-01-18T11:45:51.065Z,5.30
2023-01-18T11:56:26.242Z,2.90
2023-01-18T12:01:56.855Z,4.10
2023-01-18T12:07:14.044Z,4.00
2023-01-18T12:12:22.329Z,3.50
2023-01-18T12:18:11.740Z,5.50
2023-01-18T12:28:42.652Z,3.60
2023-01-18T12:38:56.381Z,2.50
2023-01-18T12:44:17.292Z,2.80
2023-01-18T12:49:22.003Z,3.00
2023-01-18T12:54:32.725Z,3.30
2023-01-18T12:59:45.247Z,3.30
2023-01-18T13:05:00.166Z,3.50
2023-01-18T13:10:03.438Z,3.60
2023-01-18T13:15:30.374Z,3.70
2023-01-18T13:20:51.222Z,3.30
2023-01-18T13:26:25.756Z,3.60
2023-01-18T13:31:32.190Z,3.80
2023-01-18T13:36:46.989Z,3.90
2023-01-18T13:42:04.969Z,4.00
2023-01-18T13:47:39.369Z,3.50
2023-01-18T13:52:43.548Z,3.20
2023-01-18T13:57:54.576Z,2.90
2023-01-18T14:03:06.531Z,2.80
2023-01-18T14:08:31.449Z,2.90
2023-01-18T14:13:45.979Z,3.30
2023-01-18T14:19:17.078Z,3.30
2023-01-18T14:24:54.618Z,3.50
2023-01-18T14:30:17.968Z,3.30
2023-01-18T14:35:25.425Z,4.00
2023-01-18T14:40:28.736Z,4.10
2023-01-18T14:45:32.637Z,4.20
2023-01-18T14:50:41.621Z,4.20
2023-01-18T14:56:00.425Z,4.10
2023-01-18T15:01:03.906Z,4.40
2023-01-18T15:06:13.135Z,5.10
2023-01-18T15:11:15.988Z,6.00
2023-01-18T15:16:21.724Z,6.40
2023-01-18T15:21:29.863Z,6.20
2023-01-18T15:26:56.066Z,5.50
2023-01-18T15:32:04.651Z,5.20
2023-01-18T15:37:12.948Z,5.90
2023-01-18T15:42:17.887Z,5.90
2023-01-18T15:47:24.671Z,5.10
2023-01-18T15:52:45.217Z,4.30
2023-01-18T15:58:04.741Z,4.00
2023-01-18T16:03:25.682Z,4.80
2023-01-18T16:08:28.363Z,5.20
2023-01-18T16:13:39.891Z,4.90
2023-01-18T16:19:00.401Z,4.80
2023-01-18T16:24:03.039Z,5.50
2023-01-18T16:29:07.887Z,6.50
2023-01-18T16:34:25.849Z,6.50
2023-01-18T16:39:28.512Z,6.90
2023-01-18T16:44:32.047Z,6.70
2023-01-18T16:49:34.542Z,6.40
2023-01-18T16:54:37.134Z,6.80
2023-01-18T16:59:39.669Z,7.00
2023-01-18T17:04:42.535Z,6.80
2023-01-18T17:09:49.890Z,6.10
2023-01-18T17:14:53.055Z,5.50
2023-01-18T17:19:55.847Z,5.60
2023-01-18T17:24:58.855Z,4.80
2023-01-18T17:30:02.129Z,3.90
2023-01-18T17:35:06.030Z,4.00
2023-01-18T17:40:17.089Z,3.40
2023-01-18T17:45:22.412Z,3.90
2023-01-18T17:50:25.340Z,3.30
2023-01-18T17:55:34.673Z,3.50
2023-01-18T18:00:37.803Z,3.80
2023-01-18T18:05:40.451Z,4.90
2023-01-18T18:10:43.910Z,4.40
2023-01-18T18:15:49.239Z,4.40
2023-01-18T18:21:00.349Z,4.80
2023-01-18T18:26:04.777Z,5.20
2023-01-18T18:31:13.072Z,5.00
2023-01-18T18:36:15.954Z,5.60
2023-01-18T18:41:18.669Z,6.60
2023-01-18T18:46:21.550Z,6.50
2023-01-18T18:51:26.872Z,7.10
2023-01-18T18:56:29.363Z,7.30
2023-01-18T19:01:31.912Z,6.70
2023-01-18T19:06:35.339Z,5.40
2023-01-18T19:11:41.629Z,4.00
2023-01-18T19:16:50.017Z,3.30
2023-01-18T19:21:53.063Z,3.00
2023-01-18T19:26:55.529Z,2.90
2023-01-18T19:31:58.335Z,2.90
2023-01-18T19:37:01.186Z,3.40
2023-01-18T19:42:04.506Z,3.50
2023-01-18T19:47:07.468Z,3.40
2023-01-18T19:52:10.291Z,3.60
2023-01-18T19:57:12.947Z,4.30
2023-01-18T20:02:15.697Z,3.80
2023-01-18T20:07:18.766Z,4.10
2023-01-18T20:12:21.512Z,4.40
2023-01-18T20:17:24.521Z,4.50
2023-01-18T20:22:27.482Z,3.60
2023-01-18T20:27:31.057Z,3.70
2023-01-18T20:32:33.815Z,3.40
2023-01-18T20:37:36.599Z,3.20
2023-01-18T20:42:39.979Z,3.00
2023-01-18T20:47:42.985Z,3.50
2023-01-18T20:52:46.569Z,3.20
2023-01-18T20:57:52.060Z,3.20
2023-01-18T21:02:55.105Z,3.00
2023-01-18T21:07:58.768Z,3.10
2023-01-18T21:13:02.171Z,3.50
2023-01-18T21:18:07.284Z,3.00
2023-01-18T21:23:12.380Z,3.90
2023-01-18T21:28:15.784Z,4.60
2023-01-18T21:33:19.259Z,4.80
2023-01-18T21:38:27.161Z,3.90
2023-01-18T21:43:48.210Z,3.10
2023-01-18T21:48:51.092Z,2.90
2023-01-18T21:54:12.236Z,2.80
2023-01-18T21:59:15.025Z,3.00
2023-01-18T22:04:36.086Z,3.10
2023-01-18T22:09:39.352Z,3.20
2023-01-18T22:14:41.862Z,3.90
2023-01-18T22:19:45.103Z,6.00
2023-01-18T22:24:47.521Z,5.90
2023-01-18T22:29:49.959Z,5.90
2023-01-18T22:34:52.407Z,5.80
2023-01-18T22:39:54.883Z,4.20
2023-01-18T22:44:57.431Z,4.30
2023-01-18T22:49:59.888Z,4.10
2023-01-18T22:55:02.569Z,3.80
2023-01-18T23:00:07.000Z,3.30
2023-01-18T23:05:09.828Z,2.90
2023-01-18T23:10:12.289Z,3.20
2023-01-18T23:15:33.725Z,3.40
2023-01-18T23:20:36.671Z,2.80
2023-01-18T23:25:39.659Z,2.70
2023-01-18T23:30:42.290Z,2.60
2023-01-18T23:35:44.833Z,2.80
2023-01-18T23:41:05.740Z,2.90
2023-01-18T23:46:27.142Z,2.70
2023-01-18T23:51:48.309Z,2.70
2023-01-18T23:56:50.856Z,2.60
